sensor_id;sensor_type;location;lat;lon;timestamp;temperature;humidity
24085;DHT22;12268;52.110;5.548;2022-11-15T00:00:48;10.90;99.90
24085;DHT22;12268;52.110;5.548;2022-11-15T00:03:18;10.80;99.90
24085;DHT22;12268;52.110;5.548;2022-11-15T00:05:44;10.80;99.90
24085;DHT22;12268;52.110;5.548;2022-11-15T00:08:10;10.60;99.90
24085;DHT22;12268;52.110;5.548;2022-11-15T00:10:36;10.70;99.90
24085;DHT22;12268;52.110;5.548;2022-11-15T00:13:10;10.70;99.90
24085;DHT22;12268;52.110;5.548;2022-11-15T00:15:38;10.60;99.90
24085;DHT22;12268;52.110;5.548;2022-11-15T00:18:05;10.70;99.90
24085;DHT22;12268;52.110;5.548;2022-11-15T00:20:33;10.80;99.90
24085;DHT22;12268;52.110;5.548;2022-11-15T00:22:58;10.60;99.90
24085;DHT22;12268;52.110;5.548;2022-11-15T00:25:24;10.60;99.90
24085;DHT22;12268;52.110;5.548;2022-11-15T00:27:50;10.60;99.90
24085;DHT22;12268;52.110;5.548;2022-11-15T00:30:17;10.90;99.90
24085;DHT22;12268;52.110;5.548;2022-11-15T00:32:42;11.00;99.90
24085;DHT22;12268;52.110;5.548;2022-11-15T00:35:08;11.20;99.90
24085;DHT22;12268;52.110;5.548;2022-11-15T00:37:33;11.20;99.90
24085;DHT22;12268;52.110;5.548;2022-11-15T00:39:59;11.10;99.90
24085;DHT22;12268;52.110;5.548;2022-11-15T00:42:24;11.00;99.90
24085;DHT22;12268;52.110;5.548;2022-11-15T00:44:50;10.90;99.90
24085;DHT22;12268;52.110;5.548;2022-11-15T00:47:15;11.00;99.90
24085;DHT22;12268;52.110;5.548;2022-11-15T00:49:41;11.10;99.90
24085;DHT22;12268;52.110;5.548;2022-11-15T00:52:07;11.40;99.90
24085;DHT22;12268;52.110;5.548;2022-11-15T00:54:32;11.40;99.90
24085;DHT22;12268;52.110;5.548;2022-11-15T00:56:58;11.50;99.90
24085;DHT22;12268;52.110;5.548;2022-11-15T00:59:23;11.40;99.90
24085;DHT22;12268;52.110;5.548;2022-11-15T01:01:49;11.40;99.90
24085;DHT22;12268;52.110;5.548;2022-11-15T01:04:14;11.50;99.90
24085;DHT22;12268;52.110;5.548;2022-11-15T01:06:40;11.40;99.90
24085;DHT22;12268;52.110;5.548;2022-11-15T01:09:05;11.30;99.90
24085;DHT22;12268;52.110;5.548;2022-11-15T01:11:31;11.00;99.90
24085;DHT22;12268;52.110;5.548;2022-11-15T01:13:56;10.90;99.90
24085;DHT22;12268;52.110;5.548;2022-11-15T01:16:22;11.00;99.90
24085;DHT22;12268;52.110;5.548;2022-11-15T01:18:47;11.10;99.90
24085;DHT22;12268;52.110;5.548;2022-11-15T01:21:16;11.20;99.90
24085;DHT22;12268;52.110;5.548;2022-11-15T01:23:42;11.30;99.90
24085;DHT22;12268;52.110;5.548;2022-11-15T01:26:10;11.00;99.90
24085;DHT22;12268;52.110;5.548;2022-11-15T01:28:37;11.10;99.90
24085;DHT22;12268;52.110;5.548;2022-11-15T01:31:06;11.30;99.90
24085;DHT22;12268;52.110;5.548;2022-11-15T01:33:34;11.30;99.90
24085;DHT22;12268;52.110;5.548;2022-11-15T01:36:04;11.40;99.90
24085;DHT22;12268;52.110;5.548;2022-11-15T01:38:30;11.40;99.90
24085;DHT22;12268;52.110;5.548;2022-11-15T01:40:55;11.40;99.90
24085;DHT22;12268;52.110;5.548;2022-11-15T01:43:35;11.60;99.90
24085;DHT22;12268;52.110;5.548;2022-11-15T01:48:47;11.60;99.90
24085;DHT22;12268;52.110;5.548;2022-11-15T01:51:14;11.60;99.90
24085;DHT22;12268;52.110;5.548;2022-11-15T01:53:43;11.60;99.90
24085;DHT22;12268;52.110;5.548;2022-11-15T01:56:15;11.70;99.90
24085;DHT22;12268;52.110;5.548;2022-11-15T01:58:43;11.80;99.90
24085;DHT22;12268;52.110;5.548;2022-11-15T02:01:09;11.80;99.90
24085;DHT22;12268;52.110;5.548;2022-11-15T02:04:27;11.70;99.90
24085;DHT22;12268;52.110;5.548;2022-11-15T02:06:27;11.80;99.90
24085;DHT22;12268;52.110;5.548;2022-11-15T02:08:53;11.80;99.90
24085;DHT22;12268;52.110;5.548;2022-11-15T02:11:19;11.90;99.90
24085;DHT22;12268;52.110;5.548;2022-11-15T02:13:45;11.90;99.90
24085;DHT22;12268;52.110;5.548;2022-11-15T02:27:50;12.10;99.90
24085;DHT22;12268;52.110;5.548;2022-11-15T02:30:35;12.20;99.90
24085;DHT22;12268;52.110;5.548;2022-11-15T02:33:13;12.00;99.90
24085;DHT22;12268;52.110;5.548;2022-11-15T02:35:57;12.10;99.90
24085;DHT22;12268;52.110;5.548;2022-11-15T02:38:43;12.20;99.90
24085;DHT22;12268;52.110;5.548;2022-11-15T02:41:21;12.30;99.90
24085;DHT22;12268;52.110;5.548;2022-11-15T02:44:08;12.30;99.90
24085;DHT22;12268;52.110;5.548;2022-11-15T02:46:41;12.40;99.90
24085;DHT22;12268;52.110;5.548;2022-11-15T02:49:29;12.50;99.90
24085;DHT22;12268;52.110;5.548;2022-11-15T02:51:56;12.50;99.90
24085;DHT22;12268;52.110;5.548;2022-11-15T02:54:24;12.70;99.90
24085;DHT22;12268;52.110;5.548;2022-11-15T02:56:53;12.60;99.90
24085;DHT22;12268;52.110;5.548;2022-11-15T03:04:57;13.00;99.90
24085;DHT22;12268;52.110;5.548;2022-11-15T03:07:30;13.20;99.90
24085;DHT22;12268;52.110;5.548;2022-11-15T03:10:06;13.20;99.90
24085;DHT22;12268;52.110;5.548;2022-11-15T03:12:46;13.30;99.90
24085;DHT22;12268;52.110;5.548;2022-11-15T03:15:21;13.40;99.90
24085;DHT22;12268;52.110;5.548;2022-11-15T03:17:59;13.30;99.90
24085;DHT22;12268;52.110;5.548;2022-11-15T03:20:26;13.30;99.90
24085;DHT22;12268;52.110;5.548;2022-11-15T03:22:55;13.20;99.90
24085;DHT22;12268;52.110;5.548;2022-11-15T03:25:24;13.10;99.90
24085;DHT22;12268;52.110;5.548;2022-11-15T03:27:52;13.10;99.90
24085;DHT22;12268;52.110;5.548;2022-11-15T03:30:19;12.90;99.90
24085;DHT22;12268;52.110;5.548;2022-11-15T03:32:55;12.70;99.90
24085;DHT22;12268;52.110;5.548;2022-11-15T03:35:24;12.70;99.90
24085;DHT22;12268;52.110;5.548;2022-11-15T03:40:59;12.80;99.90
24085;DHT22;12268;52.110;5.548;2022-11-15T03:46:13;13.00;99.90
24085;DHT22;12268;52.110;5.548;2022-11-15T03:48:51;13.00;99.90
24085;DHT22;12268;52.110;5.548;2022-11-15T03:51:18;13.00;99.90
24085;DHT22;12268;52.110;5.548;2022-11-15T03:53:45;13.10;99.90
24085;DHT22;12268;52.110;5.548;2022-11-15T03:56:11;13.00;99.90
24085;DHT22;12268;52.110;5.548;2022-11-15T03:58:36;12.90;99.90
24085;DHT22;12268;52.110;5.548;2022-11-15T04:01:02;13.00;99.90
24085;DHT22;12268;52.110;5.548;2022-11-15T04:03:27;13.20;99.90
24085;DHT22;12268;52.110;5.548;2022-11-15T04:05:53;13.40;99.90
24085;DHT22;12268;52.110;5.548;2022-11-15T04:08:18;13.50;99.90
24085;DHT22;12268;52.110;5.548;2022-11-15T04:10:44;13.50;99.90
24085;DHT22;12268;52.110;5.548;2022-11-15T04:13:09;13.50;99.90
24085;DHT22;12268;52.110;5.548;2022-11-15T04:15:35;13.70;99.90
24085;DHT22;12268;52.110;5.548;2022-11-15T04:18:01;13.90;99.90
24085;DHT22;12268;52.110;5.548;2022-11-15T04:20:29;13.90;99.90
24085;DHT22;12268;52.110;5.548;2022-11-15T04:23:18;13.80;99.90
24085;DHT22;12268;52.110;5.548;2022-11-15T04:26:05;13.70;99.90
24085;DHT22;12268;52.110;5.548;2022-11-15T04:28:32;13.60;99.90
24085;DHT22;12268;52.110;5.548;2022-11-15T04:30:58;13.70;99.90
24085;DHT22;12268;52.110;5.548;2022-11-15T04:33:23;13.60;99.90
24085;DHT22;12268;52.110;5.548;2022-11-15T04:35:49;13.50;99.90
24085;DHT22;12268;52.110;5.548;2022-11-15T04:38:34;13.50;99.90
24085;DHT22;12268;52.110;5.548;2022-11-15T04:41:00;13.60;99.90
24085;DHT22;12268;52.110;5.548;2022-11-15T04:43:26;13.80;99.90
24085;DHT22;12268;52.110;5.548;2022-11-15T04:45:51;13.70;99.90
24085;DHT22;12268;52.110;5.548;2022-11-15T04:48:17;13.70;99.90
24085;DHT22;12268;52.110;5.548;2022-11-15T04:50:42;13.80;99.90
24085;DHT22;12268;52.110;5.548;2022-11-15T04:53:08;13.90;99.90
24085;DHT22;12268;52.110;5.548;2022-11-15T04:55:33;14.00;99.90
24085;DHT22;12268;52.110;5.548;2022-11-15T04:58:00;14.00;99.90
24085;DHT22;12268;52.110;5.548;2022-11-15T05:00:27;14.00;99.90
24085;DHT22;12268;52.110;5.548;2022-11-15T05:02:53;14.00;99.90
24085;DHT22;12268;52.110;5.548;2022-11-15T05:05:37;14.20;99.90
24085;DHT22;12268;52.110;5.548;2022-11-15T05:08:03;14.10;99.90
24085;DHT22;12268;52.110;5.548;2022-11-15T05:10:28;14.00;99.90
24085;DHT22;12268;52.110;5.548;2022-11-15T05:12:54;13.80;99.90
24085;DHT22;12268;52.110;5.548;2022-11-15T05:15:19;13.80;99.90
24085;DHT22;12268;52.110;5.548;2022-11-15T05:17:45;13.70;99.90
24085;DHT22;12268;52.110;5.548;2022-11-15T05:20:11;13.90;99.90
24085;DHT22;12268;52.110;5.548;2022-11-15T05:22:36;14.00;99.90
24085;DHT22;12268;52.110;5.548;2022-11-15T05:25:03;13.90;99.90
24085;DHT22;12268;52.110;5.548;2022-11-15T05:27:28;13.90;99.90
24085;DHT22;12268;52.110;5.548;2022-11-15T05:29:54;14.00;99.90
24085;DHT22;12268;52.110;5.548;2022-11-15T05:32:20;14.10;99.90
24085;DHT22;12268;52.110;5.548;2022-11-15T05:34:46;14.10;99.90
24085;DHT22;12268;52.110;5.548;2022-11-15T05:37:12;14.20;99.90
24085;DHT22;12268;52.110;5.548;2022-11-15T05:39:38;14.20;99.90
24085;DHT22;12268;52.110;5.548;2022-11-15T05:42:12;14.30;99.90
24085;DHT22;12268;52.110;5.548;2022-11-15T05:44:41;14.40;99.90
24085;DHT22;12268;52.110;5.548;2022-11-15T05:47:09;14.20;99.90
24085;DHT22;12268;52.110;5.548;2022-11-15T05:49:36;14.30;99.90
24085;DHT22;12268;52.110;5.548;2022-11-15T05:52:05;14.40;99.90
24085;DHT22;12268;52.110;5.548;2022-11-15T05:54:32;14.50;99.90
24085;DHT22;12268;52.110;5.548;2022-11-15T05:56:58;14.40;99.90
24085;DHT22;12268;52.110;5.548;2022-11-15T05:59:25;14.40;99.90
24085;DHT22;12268;52.110;5.548;2022-11-15T06:01:51;14.40;99.90
24085;DHT22;12268;52.110;5.548;2022-11-15T06:04:16;14.20;99.90
24085;DHT22;12268;52.110;5.548;2022-11-15T06:06:42;14.10;99.90
24085;DHT22;12268;52.110;5.548;2022-11-15T06:09:07;14.10;99.90
24085;DHT22;12268;52.110;5.548;2022-11-15T06:11:33;14.10;99.90
24085;DHT22;12268;52.110;5.548;2022-11-15T06:13:58;14.10;99.90
24085;DHT22;12268;52.110;5.548;2022-11-15T06:16:24;14.10;99.90
24085;DHT22;12268;52.110;5.548;2022-11-15T06:18:49;14.20;99.90
24085;DHT22;12268;52.110;5.548;2022-11-15T06:21:15;14.40;99.90
24085;DHT22;12268;52.110;5.548;2022-11-15T06:23:40;14.40;99.90
24085;DHT22;12268;52.110;5.548;2022-11-15T06:26:06;14.40;99.90
24085;DHT22;12268;52.110;5.548;2022-11-15T06:28:32;14.30;99.90
24085;DHT22;12268;52.110;5.548;2022-11-15T06:31:09;14.30;99.90
24085;DHT22;12268;52.110;5.548;2022-11-15T06:33:36;14.20;99.90
24085;DHT22;12268;52.110;5.548;2022-11-15T06:36:07;14.20;99.90
24085;DHT22;12268;52.110;5.548;2022-11-15T06:38:33;14.30;99.90
24085;DHT22;12268;52.110;5.548;2022-11-15T06:41:04;14.40;99.90
24085;DHT22;12268;52.110;5.548;2022-11-15T06:43:30;14.40;99.90
24085;DHT22;12268;52.110;5.548;2022-11-15T06:45:56;14.40;99.90
24085;DHT22;12268;52.110;5.548;2022-11-15T06:48:22;14.30;99.90
24085;DHT22;12268;52.110;5.548;2022-11-15T06:50:54;14.40;99.90
24085;DHT22;12268;52.110;5.548;2022-11-15T06:53:20;14.60;99.90
24085;DHT22;12268;52.110;5.548;2022-11-15T06:55:46;14.50;99.90
24085;DHT22;12268;52.110;5.548;2022-11-15T06:58:12;14.50;99.90
24085;DHT22;12268;52.110;5.548;2022-11-15T07:00:37;14.40;99.90
24085;DHT22;12268;52.110;5.548;2022-11-15T07:03:03;14.40;99.90
24085;DHT22;12268;52.110;5.548;2022-11-15T07:05:29;14.40;99.90
24085;DHT22;12268;52.110;5.548;2022-11-15T07:07:56;14.40;99.90
24085;DHT22;12268;52.110;5.548;2022-11-15T07:10:23;14.50;99.90
24085;DHT22;12268;52.110;5.548;2022-11-15T07:12:50;14.60;99.90
24085;DHT22;12268;52.110;5.548;2022-11-15T07:15:16;14.70;99.90
24085;DHT22;12268;52.110;5.548;2022-11-15T07:17:42;14.70;99.90
24085;DHT22;12268;52.110;5.548;2022-11-15T07:20:08;14.70;99.90
24085;DHT22;12268;52.110;5.548;2022-11-15T07:22:34;14.80;99.90
24085;DHT22;12268;52.110;5.548;2022-11-15T07:24:59;14.80;99.90
24085;DHT22;12268;52.110;5.548;2022-11-15T07:27:25;14.80;99.90
24085;DHT22;12268;52.110;5.548;2022-11-15T07:29:50;14.70;99.90
24085;DHT22;12268;52.110;5.548;2022-11-15T07:32:16;14.70;99.90
24085;DHT22;12268;52.110;5.548;2022-11-15T07:34:41;14.70;99.90
24085;DHT22;12268;52.110;5.548;2022-11-15T07:37:07;14.70;99.90
24085;DHT22;12268;52.110;5.548;2022-11-15T07:39:33;14.50;99.90
24085;DHT22;12268;52.110;5.548;2022-11-15T07:41:59;14.40;99.90
24085;DHT22;12268;52.110;5.548;2022-11-15T07:44:43;14.30;99.90
24085;DHT22;12268;52.110;5.548;2022-11-15T07:47:09;14.40;99.90
24085;DHT22;12268;52.110;5.548;2022-11-15T07:49:34;14.60;99.90
24085;DHT22;12268;52.110;5.548;2022-11-15T07:52:00;14.70;99.90
24085;DHT22;12268;52.110;5.548;2022-11-15T07:54:25;14.70;99.90
24085;DHT22;12268;52.110;5.548;2022-11-15T07:56:51;14.70;99.90
24085;DHT22;12268;52.110;5.548;2022-11-15T07:59:16;14.70;99.90
24085;DHT22;12268;52.110;5.548;2022-11-15T08:01:42;14.80;99.90
24085;DHT22;12268;52.110;5.548;2022-11-15T08:04:07;14.80;99.90
24085;DHT22;12268;52.110;5.548;2022-11-15T08:06:35;14.90;99.90
24085;DHT22;12268;52.110;5.548;2022-11-15T08:09:00;14.80;99.90
24085;DHT22;12268;52.110;5.548;2022-11-15T08:11:26;14.70;99.90
24085;DHT22;12268;52.110;5.548;2022-11-15T08:13:51;14.60;99.90
24085;DHT22;12268;52.110;5.548;2022-11-15T08:16:17;14.60;99.90
24085;DHT22;12268;52.110;5.548;2022-11-15T08:18:42;14.60;99.90
24085;DHT22;12268;52.110;5.548;2022-11-15T08:21:09;14.50;99.90
24085;DHT22;12268;52.110;5.548;2022-11-15T08:23:35;14.60;99.90
24085;DHT22;12268;52.110;5.548;2022-11-15T08:26:02;14.70;99.90
24085;DHT22;12268;52.110;5.548;2022-11-15T08:28:29;14.80;99.90
24085;DHT22;12268;52.110;5.548;2022-11-15T08:30:54;14.80;99.90
24085;DHT22;12268;52.110;5.548;2022-11-15T08:33:20;14.90;99.90
24085;DHT22;12268;52.110;5.548;2022-11-15T08:35:45;14.90;99.90
24085;DHT22;12268;52.110;5.548;2022-11-15T08:38:11;14.80;99.90
24085;DHT22;12268;52.110;5.548;2022-11-15T08:40:37;14.80;99.90
24085;DHT22;12268;52.110;5.548;2022-11-15T08:43:03;14.90;99.90
24085;DHT22;12268;52.110;5.548;2022-11-15T08:45:29;14.90;99.90
24085;DHT22;12268;52.110;5.548;2022-11-15T08:47:56;14.90;99.90
24085;DHT22;12268;52.110;5.548;2022-11-15T08:50:22;14.90;99.90
24085;DHT22;12268;52.110;5.548;2022-11-15T08:52:47;15.00;99.90
24085;DHT22;12268;52.110;5.548;2022-11-15T08:55:16;14.90;99.90
24085;DHT22;12268;52.110;5.548;2022-11-15T08:57:41;15.00;99.90
24085;DHT22;12268;52.110;5.548;2022-11-15T09:00:07;15.10;99.90
24085;DHT22;12268;52.110;5.548;2022-11-15T09:12:56;15.20;99.90
24085;DHT22;12268;52.110;5.548;2022-11-15T09:15:22;15.40;99.90
24085;DHT22;12268;52.110;5.548;2022-11-15T09:17:47;15.80;99.90
24085;DHT22;12268;52.110;5.548;2022-11-15T09:20:13;16.10;99.90
24085;DHT22;12268;52.110;5.548;2022-11-15T09:22:39;16.20;99.90
24085;DHT22;12268;52.110;5.548;2022-11-15T09:25:05;15.90;99.90
24085;DHT22;12268;52.110;5.548;2022-11-15T09:27:31;15.50;99.90
24085;DHT22;12268;52.110;5.548;2022-11-15T09:29:56;15.30;99.90
24085;DHT22;12268;52.110;5.548;2022-11-15T09:32:22;15.30;99.90
24085;DHT22;12268;52.110;5.548;2022-11-15T09:34:49;15.20;99.90
24085;DHT22;12268;52.110;5.548;2022-11-15T09:37:14;15.20;99.90
24085;DHT22;12268;52.110;5.548;2022-11-15T09:39:40;15.20;99.90
24085;DHT22;12268;52.110;5.548;2022-11-15T09:50:36;14.80;99.90
24085;DHT22;12268;52.110;5.548;2022-11-15T09:53:04;14.80;99.90
24085;DHT22;12268;52.110;5.548;2022-11-15T09:56:19;14.80;99.90
24085;DHT22;12268;52.110;5.548;2022-11-15T09:58:58;14.90;99.90
24085;DHT22;12268;52.110;5.548;2022-11-15T10:01:41;14.90;99.90
24085;DHT22;12268;52.110;5.548;2022-11-15T10:04:10;15.30;99.90
24085;DHT22;12268;52.110;5.548;2022-11-15T10:06:40;15.90;99.90
24085;DHT22;12268;52.110;5.548;2022-11-15T10:09:13;16.60;99.90
24085;DHT22;12268;52.110;5.548;2022-11-15T10:11:40;16.60;99.90
24085;DHT22;12268;52.110;5.548;2022-11-15T10:14:15;16.50;99.90
24085;DHT22;12268;52.110;5.548;2022-11-15T10:17:04;16.30;99.90
24085;DHT22;12268;52.110;5.548;2022-11-15T10:19:53;16.00;99.90
24085;DHT22;12268;52.110;5.548;2022-11-15T10:24:50;16.70;99.90
24085;DHT22;12268;52.110;5.548;2022-11-15T10:27:18;16.80;99.90
24085;DHT22;12268;52.110;5.548;2022-11-15T10:29:49;16.60;99.90
24085;DHT22;12268;52.110;5.548;2022-11-15T10:32:17;16.30;99.90
24085;DHT22;12268;52.110;5.548;2022-11-15T10:34:43;16.20;99.90
24085;DHT22;12268;52.110;5.548;2022-11-15T10:37:08;15.70;99.90
24085;DHT22;12268;52.110;5.548;2022-11-15T10:39:34;15.50;99.90
24085;DHT22;12268;52.110;5.548;2022-11-15T10:42:25;15.30;99.90
24085;DHT22;12268;52.110;5.548;2022-11-15T10:44:51;15.30;99.90
24085;DHT22;12268;52.110;5.548;2022-11-15T10:49:57;16.30;99.90
24085;DHT22;12268;52.110;5.548;2022-11-15T10:52:23;16.30;99.90
24085;DHT22;12268;52.110;5.548;2022-11-15T10:55:12;15.90;99.90
24085;DHT22;12268;52.110;5.548;2022-11-15T10:58:02;15.80;99.90
24085;DHT22;12268;52.110;5.548;2022-11-15T11:00:34;15.80;99.90
24085;DHT22;12268;52.110;5.548;2022-11-15T11:03:03;15.50;99.90
24085;DHT22;12268;52.110;5.548;2022-11-15T11:05:32;15.60;99.90
24085;DHT22;12268;52.110;5.548;2022-11-15T11:08:23;15.80;99.90
24085;DHT22;12268;52.110;5.548;2022-11-15T11:10:58;16.00;99.90
24085;DHT22;12268;52.110;5.548;2022-11-15T11:13:33;15.90;99.90
24085;DHT22;12268;52.110;5.548;2022-11-15T11:21:10;17.40;99.90
24085;DHT22;12268;52.110;5.548;2022-11-15T11:23:52;17.50;99.90
24085;DHT22;12268;52.110;5.548;2022-11-15T11:26:41;17.50;99.90
24085;DHT22;12268;52.110;5.548;2022-11-15T11:31:54;17.70;99.90
24085;DHT22;12268;52.110;5.548;2022-11-15T11:34:46;17.00;99.90
24085;DHT22;12268;52.110;5.548;2022-11-15T11:50:49;16.30;99.90
24085;DHT22;12268;52.110;5.548;2022-11-15T11:53:31;16.50;99.90
24085;DHT22;12268;52.110;5.548;2022-11-15T11:56:07;16.50;99.90
24085;DHT22;12268;52.110;5.548;2022-11-15T11:58:44;16.10;99.90
24085;DHT22;12268;52.110;5.548;2022-11-15T12:01:22;16.00;99.90
24085;DHT22;12268;52.110;5.548;2022-11-15T12:04:21;16.10;99.90
24085;DHT22;12268;52.110;5.548;2022-11-15T12:06:59;15.90;99.90
24085;DHT22;12268;52.110;5.548;2022-11-15T12:09:41;16.00;99.90
24085;DHT22;12268;52.110;5.548;2022-11-15T12:12:30;16.10;99.90
24085;DHT22;12268;52.110;5.548;2022-11-15T12:17:28;16.30;99.90
24085;DHT22;12268;52.110;5.548;2022-11-15T12:19:59;16.10;99.90
24085;DHT22;12268;52.110;5.548;2022-11-15T12:22:35;15.90;99.90
24085;DHT22;12268;52.110;5.548;2022-11-15T12:25:30;15.80;99.90
24085;DHT22;12268;52.110;5.548;2022-11-15T12:28:23;15.90;99.90
24085;DHT22;12268;52.110;5.548;2022-11-15T12:30:59;15.80;99.90
24085;DHT22;12268;52.110;5.548;2022-11-15T12:33:46;15.70;99.90
24085;DHT22;12268;52.110;5.548;2022-11-15T12:36:34;15.60;99.90
24085;DHT22;12268;52.110;5.548;2022-11-15T12:38:59;15.50;99.90
24085;DHT22;12268;52.110;5.548;2022-11-15T12:41:33;15.70;99.90
24085;DHT22;12268;52.110;5.548;2022-11-15T12:44:00;16.00;99.90
24085;DHT22;12268;52.110;5.548;2022-11-15T12:59:54;15.90;99.90
24085;DHT22;12268;52.110;5.548;2022-11-15T13:04:47;15.90;99.90
24085;DHT22;12268;52.110;5.548;2022-11-15T13:10:00;16.00;99.90
24085;DHT22;12268;52.110;5.548;2022-11-15T13:14:53;16.20;99.90
24085;DHT22;12268;52.110;5.548;2022-11-15T13:19:46;16.20;99.90
24085;DHT22;12268;52.110;5.548;2022-11-15T13:22:12;16.40;99.90
24085;DHT22;12268;52.110;5.548;2022-11-15T13:24:57;16.40;99.90
24085;DHT22;12268;52.110;5.548;2022-11-15T13:27:24;16.50;99.90
24085;DHT22;12268;52.110;5.548;2022-11-15T13:29:50;16.60;99.90
24085;DHT22;12268;52.110;5.548;2022-11-15T13:32:16;16.50;99.90
24085;DHT22;12268;52.110;5.548;2022-11-15T13:34:49;16.40;99.90
24085;DHT22;12268;52.110;5.548;2022-11-15T13:39:47;16.10;99.90
24085;DHT22;12268;52.110;5.548;2022-11-15T13:42:18;15.70;99.90
24085;DHT22;12268;52.110;5.548;2022-11-15T13:44:59;15.50;99.90
24085;DHT22;12268;52.110;5.548;2022-11-15T13:47:28;15.30;99.90
24085;DHT22;12268;52.110;5.548;2022-11-15T13:49:57;15.30;99.90
24085;DHT22;12268;52.110;5.548;2022-11-15T13:52:27;15.40;99.90
24085;DHT22;12268;52.110;5.548;2022-11-15T13:55:02;15.40;99.90
24085;DHT22;12268;52.110;5.548;2022-11-15T13:57:51;15.60;99.90
24085;DHT22;12268;52.110;5.548;2022-11-15T14:00:34;16.00;99.90
24085;DHT22;12268;52.110;5.548;2022-11-15T14:03:22;16.10;99.90
24085;DHT22;12268;52.110;5.548;2022-11-15T14:06:06;16.30;99.90
24085;DHT22;12268;52.110;5.548;2022-11-15T14:08:33;16.40;99.90
24085;DHT22;12268;52.110;5.548;2022-11-15T14:11:19;16.20;99.90
24085;DHT22;12268;52.110;5.548;2022-11-15T14:16:35;16.10;99.90
24085;DHT22;12268;52.110;5.548;2022-11-15T14:19:01;16.00;99.90
24085;DHT22;12268;52.110;5.548;2022-11-15T14:21:27;15.90;99.90
24085;DHT22;12268;52.110;5.548;2022-11-15T14:23:53;16.10;99.90
24085;DHT22;12268;52.110;5.548;2022-11-15T14:26:38;16.10;99.90
24085;DHT22;12268;52.110;5.548;2022-11-15T14:29:25;16.00;99.90
24085;DHT22;12268;52.110;5.548;2022-11-15T14:32:14;16.20;99.90
24085;DHT22;12268;52.110;5.548;2022-11-15T14:34:37;16.10;99.90
24085;DHT22;12268;52.110;5.548;2022-11-15T14:37:03;16.00;99.90
24085;DHT22;12268;52.110;5.548;2022-11-15T14:39:29;15.90;99.90
24085;DHT22;12268;52.110;5.548;2022-11-15T14:41:54;16.10;99.90
24085;DHT22;12268;52.110;5.548;2022-11-15T14:44:20;16.20;99.90
24085;DHT22;12268;52.110;5.548;2022-11-15T14:46:46;16.20;99.90
24085;DHT22;12268;52.110;5.548;2022-11-15T14:49:13;16.40;99.90
24085;DHT22;12268;52.110;5.548;2022-11-15T14:51:40;16.50;99.90
24085;DHT22;12268;52.110;5.548;2022-11-15T14:54:11;16.50;99.90
24085;DHT22;12268;52.110;5.548;2022-11-15T14:56:37;16.20;99.90
24085;DHT22;12268;52.110;5.548;2022-11-15T14:59:02;16.00;99.90
24085;DHT22;12268;52.110;5.548;2022-11-15T15:01:28;16.00;99.90
24085;DHT22;12268;52.110;5.548;2022-11-15T15:03:54;16.10;99.90
24085;DHT22;12268;52.110;5.548;2022-11-15T15:06:22;16.20;99.90
24085;DHT22;12268;52.110;5.548;2022-11-15T15:08:48;16.10;99.90
24085;DHT22;12268;52.110;5.548;2022-11-15T15:11:24;15.70;99.90
24085;DHT22;12268;52.110;5.548;2022-11-15T15:13:50;15.90;99.90
24085;DHT22;12268;52.110;5.548;2022-11-15T15:16:17;15.80;99.90
24085;DHT22;12268;52.110;5.548;2022-11-15T15:18:43;15.80;99.90
24085;DHT22;12268;52.110;5.548;2022-11-15T15:21:24;15.70;99.90
24085;DHT22;12268;52.110;5.548;2022-11-15T15:23:50;15.50;99.90
24085;DHT22;12268;52.110;5.548;2022-11-15T15:26:16;15.50;99.90
24085;DHT22;12268;52.110;5.548;2022-11-15T15:28:42;15.30;99.90
24085;DHT22;12268;52.110;5.548;2022-11-15T15:31:09;15.30;99.90
24085;DHT22;12268;52.110;5.548;2022-11-15T15:33:34;15.30;99.90
24085;DHT22;12268;52.110;5.548;2022-11-15T15:36:00;15.40;99.90
24085;DHT22;12268;52.110;5.548;2022-11-15T15:38:26;15.20;99.90
24085;DHT22;12268;52.110;5.548;2022-11-15T15:40:51;15.20;99.90
24085;DHT22;12268;52.110;5.548;2022-11-15T15:43:17;15.50;99.90
24085;DHT22;12268;52.110;5.548;2022-11-15T15:45:42;15.60;99.90
24085;DHT22;12268;52.110;5.548;2022-11-15T15:48:12;15.50;99.90
24085;DHT22;12268;52.110;5.548;2022-11-15T15:50:38;15.30;99.90
24085;DHT22;12268;52.110;5.548;2022-11-15T15:53:04;15.50;99.90
24085;DHT22;12268;52.110;5.548;2022-11-15T15:55:30;15.30;99.90
24085;DHT22;12268;52.110;5.548;2022-11-15T15:57:56;15.10;99.90
24085;DHT22;12268;52.110;5.548;2022-11-15T16:00:22;15.20;99.90
24085;DHT22;12268;52.110;5.548;2022-11-15T16:02:50;15.50;99.90
24085;DHT22;12268;52.110;5.548;2022-11-15T16:05:15;15.70;99.90
24085;DHT22;12268;52.110;5.548;2022-11-15T16:07:42;15.80;99.90
24085;DHT22;12268;52.110;5.548;2022-11-15T16:10:23;15.90;99.90
24085;DHT22;12268;52.110;5.548;2022-11-15T16:12:50;15.70;99.90
24085;DHT22;12268;52.110;5.548;2022-11-15T16:15:16;15.30;99.90
24085;DHT22;12268;52.110;5.548;2022-11-15T16:17:53;15.30;99.90
24085;DHT22;12268;52.110;5.548;2022-11-15T16:20:43;15.40;99.90
24085;DHT22;12268;52.110;5.548;2022-11-15T16:23:14;15.30;99.90
24085;DHT22;12268;52.110;5.548;2022-11-15T16:25:41;15.30;99.90
24085;DHT22;12268;52.110;5.548;2022-11-15T16:28:21;15.60;99.90
24085;DHT22;12268;52.110;5.548;2022-11-15T16:30:48;15.60;99.90
24085;DHT22;12268;52.110;5.548;2022-11-15T16:33:14;15.70;99.90
24085;DHT22;12268;52.110;5.548;2022-11-15T16:35:39;15.70;99.90
24085;DHT22;12268;52.110;5.548;2022-11-15T16:38:05;15.90;99.90
24085;DHT22;12268;52.110;5.548;2022-11-15T16:40:33;15.90;99.90
24085;DHT22;12268;52.110;5.548;2022-11-15T16:43:00;15.90;99.90
24085;DHT22;12268;52.110;5.548;2022-11-15T16:45:27;15.90;99.90
24085;DHT22;12268;52.110;5.548;2022-11-15T16:47:54;15.90;99.90
24085;DHT22;12268;52.110;5.548;2022-11-15T16:50:24;16.00;99.90
24085;DHT22;12268;52.110;5.548;2022-11-15T16:52:54;15.90;99.90
24085;DHT22;12268;52.110;5.548;2022-11-15T16:55:22;15.90;99.90
24085;DHT22;12268;52.110;5.548;2022-11-15T16:57:48;15.90;99.90
24085;DHT22;12268;52.110;5.548;2022-11-15T17:00:15;15.60;99.90
24085;DHT22;12268;52.110;5.548;2022-11-15T17:02:45;15.60;99.90
24085;DHT22;12268;52.110;5.548;2022-11-15T17:05:12;15.50;99.90
24085;DHT22;12268;52.110;5.548;2022-11-15T17:07:38;15.60;99.90
24085;DHT22;12268;52.110;5.548;2022-11-15T17:10:05;15.60;99.90
24085;DHT22;12268;52.110;5.548;2022-11-15T17:12:34;15.70;99.90
24085;DHT22;12268;52.110;5.548;2022-11-15T17:15:00;15.50;99.90
24085;DHT22;12268;52.110;5.548;2022-11-15T17:17:26;15.40;99.90
24085;DHT22;12268;52.110;5.548;2022-11-15T17:19:52;15.40;99.90
24085;DHT22;12268;52.110;5.548;2022-11-15T17:22:19;15.30;99.90
24085;DHT22;12268;52.110;5.548;2022-11-15T17:24:44;15.20;99.90
24085;DHT22;12268;52.110;5.548;2022-11-15T17:27:10;15.10;99.90